Time;durP1;ratioP1;P1;durP2;ratioP2;P2;SDS_P1;SDS_P2;PMS_P1;PMS_P2;Temp;Humidity;BMP_temperature;BMP_pressure;BME280_temperature;BME280_humidity;BME280_pressure;Samples;Min_cycle;Max_cycle;Signal;HPM_P1;HPM_P2
2022/11/13 00:01:51;;;;;;;;;;;6.30;99.90;;;;;;4996413;28;20001;-76
2022/11/13 00:04:19;;;;;;;;;;;6.20;99.90;;;;;;4990504;28;19973;-76
2022/11/13 00:06:45;;;;;;;;;;;6.20;99.90;;;;;;4991052;28;19936;-76
2022/11/13 00:09:12;;;;;;;;;;;6.10;99.90;;;;;;5004156;28;19964;-76
2022/11/13 00:11:39;;;;;;;;;;;6.00;99.90;;;;;;5026511;28;20016;-77
2022/11/13 00:14:05;;;;;;;;;;;5.90;99.90;;;;;;5014178;28;20017;-77
2022/11/13 00:16:32;;;;;;;;;;;5.90;99.90;;;;;;5010304;28;19986;-76
2022/11/13 00:18:59;;;;;;;;;;;5.90;99.90;;;;;;5009242;28;20118;-75
2022/11/13 00:21:27;;;;;;;;;;;5.80;99.90;;;;;;5008683;28;20455;-75
2022/11/13 00:23:54;;;;;;;;;;;5.70;99.90;;;;;;5009389;28;20296;-77
2022/11/13 00:26:22;;;;;;;;;;;5.80;99.90;;;;;;5009132;28;19932;-75
2022/11/13 00:28:52;;;;;;;;;;;5.80;99.90;;;;;;5009275;28;19932;-73
2022/11/13 00:31:18;;;;;;;;;;;5.80;99.90;;;;;;5007509;28;19933;-76
2022/11/13 00:33:45;;;;;;;;;;;5.90;99.90;;;;;;5002691;28;19926;-76
2022/11/13 00:36:14;;;;;;;;;;;5.90;99.90;;;;;;5005203;28;19948;-76
2022/11/13 00:38:42;;;;;;;;;;;5.90;99.90;;;;;;5007917;28;20024;-77
2022/11/13 00:41:09;;;;;;;;;;;5.80;99.90;;;;;;5012463;28;20010;-77
2022/11/13 00:43:36;;;;;;;;;;;5.80;99.90;;;;;;5004176;28;19936;-71
2022/11/13 00:46:03;;;;;;;;;;;5.70;99.90;;;;;;5006954;28;20020;-71
2022/11/13 00:48:29;;;;;;;;;;;5.70;99.90;;;;;;5003148;28;20016;-71
2022/11/13 00:50:56;;;;;;;;;;;5.70;99.90;;;;;;5012776;28;19936;-71
2022/11/13 00:53:23;;;;;;;;;;;5.60;99.90;;;;;;5012504;28;19932;-69
2022/11/13 00:55:51;;;;;;;;;;;5.60;99.90;;;;;;5012222;28;19932;-70
2022/11/13 00:58:18;;;;;;;;;;;5.50;99.90;;;;;;5005943;28;20030;-70
2022/11/13 01:00:45;;;;;;;;;;;5.60;99.90;;;;;;5011379;28;19926;-69
2022/11/13 01:03:12;;;;;;;;;;;5.70;99.90;;;;;;5011676;28;19929;-70
2022/11/13 01:05:39;;;;;;;;;;;5.70;99.90;;;;;;5011549;28;20295;-69
2022/11/13 01:08:06;;;;;;;;;;;5.60;99.90;;;;;;5010537;28;20277;-69
2022/11/13 01:10:34;;;;;;;;;;;5.60;99.90;;;;;;5011180;28;20024;-69
2022/11/13 01:13:02;;;;;;;;;;;5.70;99.90;;;;;;5010826;28;19926;-69
2022/11/13 01:15:28;;;;;;;;;;;5.70;99.90;;;;;;5011923;28;19969;-69
2022/11/13 01:17:55;;;;;;;;;;;5.60;99.90;;;;;;5011490;28;19925;-69
2022/11/13 01:20:21;;;;;;;;;;;5.60;99.90;;;;;;5012428;28;20012;-69
2022/11/13 01:22:48;;;;;;;;;;;5.50;99.90;;;;;;5012489;28;20018;-69
2022/11/13 01:25:15;;;;;;;;;;;5.50;99.90;;;;;;5011292;28;20024;-69
2022/11/13 01:27:42;;;;;;;;;;;5.40;99.90;;;;;;5011270;28;20364;-70
2022/11/13 01:30:10;;;;;;;;;;;5.30;99.90;;;;;;5011009;28;19925;-69
2022/11/13 01:32:37;;;;;;;;;;;5.30;99.90;;;;;;5008826;28;20340;-70
2022/11/13 01:35:04;;;;;;;;;;;5.30;99.90;;;;;;5010911;28;20316;-70
2022/11/13 01:37:30;;;;;;;;;;;5.30;99.90;;;;;;5010865;28;20016;-70
2022/11/13 01:39:57;;;;;;;;;;;5.20;99.90;;;;;;5011482;28;19926;-70
2022/11/13 01:42:24;;;;;;;;;;;5.20;99.90;;;;;;5011722;28;19925;-70
2022/11/13 01:44:51;;;;;;;;;;;5.20;99.90;;;;;;5011641;28;19932;-70
2022/11/13 01:47:20;;;;;;;;;;;5.20;99.90;;;;;;5010730;28;20023;-70
2022/11/13 01:49:47;;;;;;;;;;;5.10;99.90;;;;;;5011557;28;20012;-69
2022/11/13 01:52:15;;;;;;;;;;;5.10;99.90;;;;;;5010281;28;20298;-69
2022/11/13 01:54:43;;;;;;;;;;;5.10;99.90;;;;;;5007614;28;19940;-69
2022/11/13 01:57:10;;;;;;;;;;;5.00;99.90;;;;;;5009246;28;19926;-69
2022/11/13 01:59:39;;;;;;;;;;;5.00;99.90;;;;;;5010929;28;20296;-70
2022/11/13 02:02:06;;;;;;;;;;;5.00;99.90;;;;;;5009234;28;19930;-70
2022/11/13 02:04:34;;;;;;;;;;;4.90;99.90;;;;;;5011577;28;19925;-70
2022/11/13 02:07:02;;;;;;;;;;;5.00;99.90;;;;;;5011843;28;19969;-70
2022/11/13 02:09:30;;;;;;;;;;;5.10;99.90;;;;;;5010816;28;19932;-69
2022/11/13 02:11:56;;;;;;;;;;;5.10;99.90;;;;;;5010778;28;20032;-69
2022/11/13 02:14:24;;;;;;;;;;;5.20;99.90;;;;;;5011508;28;19926;-69
2022/11/13 02:16:52;;;;;;;;;;;5.30;99.90;;;;;;5011769;28;20019;-69
2022/11/13 02:19:23;;;;;;;;;;;5.40;99.90;;;;;;5011040;28;20439;-70
2022/11/13 02:21:56;;;;;;;;;;;5.50;99.90;;;;;;5011406;28;20012;-69
2022/11/13 02:24:26;;;;;;;;;;;5.50;99.90;;;;;;5010828;28;19956;-70
2022/11/13 02:26:54;;;;;;;;;;;5.60;99.90;;;;;;5010399;28;19939;-70
2022/11/13 02:29:21;;;;;;;;;;;5.60;99.90;;;;;;5010661;28;20356;-69
2022/11/13 02:31:47;;;;;;;;;;;5.50;99.90;;;;;;5008433;28;20491;-70
2022/11/13 02:34:14;;;;;;;;;;;5.50;99.90;;;;;;5009189;28;20024;-70
2022/11/13 02:36:41;;;;;;;;;;;5.50;99.90;;;;;;5010620;28;20017;-69
2022/11/13 02:39:10;;;;;;;;;;;5.50;99.90;;;;;;5010994;28;20016;-70
2022/11/13 02:41:38;;;;;;;;;;;5.50;99.90;;;;;;5010669;28;20413;-69
2022/11/13 02:44:05;;;;;;;;;;;5.60;99.90;;;;;;5011126;28;20009;-69
2022/11/13 02:46:32;;;;;;;;;;;5.60;99.90;;;;;;5011184;28;19925;-70
2022/11/13 02:48:58;;;;;;;;;;;5.60;99.90;;;;;;5010244;28;19926;-69
2022/11/13 02:51:25;;;;;;;;;;;5.60;99.90;;;;;;5007738;28;20037;-70
2022/11/13 02:53:52;;;;;;;;;;;5.50;99.90;;;;;;5000123;28;20435;-69
2022/11/13 02:56:19;;;;;;;;;;;5.60;99.90;;;;;;5008867;28;20012;-69
2022/11/13 02:58:47;;;;;;;;;;;5.50;99.90;;;;;;5010329;28;20079;-70
2022/11/13 03:01:13;;;;;;;;;;;5.50;99.90;;;;;;5010239;28;19927;-70
2022/11/13 03:03:40;;;;;;;;;;;5.40;99.90;;;;;;5009640;28;19932;-70
2022/11/13 03:06:07;;;;;;;;;;;5.40;99.90;;;;;;5011187;28;19926;-69
2022/11/13 03:08:33;;;;;;;;;;;5.40;99.90;;;;;;5010079;28;19932;-69
2022/11/13 03:11:00;;;;;;;;;;;5.40;99.90;;;;;;5009784;28;19939;-70
2022/11/13 03:13:27;;;;;;;;;;;5.40;99.90;;;;;;5010017;28;19925;-70
2022/11/13 03:15:55;;;;;;;;;;;5.40;99.90;;;;;;5003593;28;19932;-69
2022/11/13 03:18:22;;;;;;;;;;;5.40;99.90;;;;;;5010090;28;19932;-68
2022/11/13 03:20:52;;;;;;;;;;;5.50;99.90;;;;;;5009554;28;19940;-69
2022/11/13 03:23:19;;;;;;;;;;;5.50;99.90;;;;;;4994651;28;19932;-68
2022/11/13 03:25:45;;;;;;;;;;;5.50;99.90;;;;;;5009743;28;19925;-68
2022/11/13 03:28:12;;;;;;;;;;;5.50;99.90;;;;;;5010512;28;19925;-69
2022/11/13 03:30:39;;;;;;;;;;;5.40;99.90;;;;;;5009351;28;19932;-68
2022/11/13 03:33:07;;;;;;;;;;;5.40;99.90;;;;;;5008619;28;20319;-68
2022/11/13 03:35:33;;;;;;;;;;;5.40;99.90;;;;;;5008796;28;20008;-68
2022/11/13 03:38:00;;;;;;;;;;;5.40;99.90;;;;;;5008174;28;19932;-68
2022/11/13 03:40:27;;;;;;;;;;;5.40;99.90;;;;;;5005863;28;19929;-69
2022/11/13 03:42:53;;;;;;;;;;;5.30;99.90;;;;;;5007151;28;20024;-69
2022/11/13 03:45:20;;;;;;;;;;;5.30;99.90;;;;;;5006510;28;20012;-69
2022/11/13 03:47:48;;;;;;;;;;;5.30;99.90;;;;;;5005781;28;19972;-69
2022/11/13 03:50:16;;;;;;;;;;;5.20;99.90;;;;;;5001665;28;19925;-69
2022/11/13 03:52:43;;;;;;;;;;;5.20;99.90;;;;;;5008554;28;20439;-68
2022/11/13 03:55:09;;;;;;;;;;;5.10;99.90;;;;;;5005655;28;20395;-68
2022/11/13 03:57:36;;;;;;;;;;;5.00;99.90;;;;;;5007288;28;20052;-69
2022/11/13 04:00:03;;;;;;;;;;;5.00;99.90;;;;;;5007252;28;20312;-70
2022/11/13 04:02:30;;;;;;;;;;;4.90;99.90;;;;;;5002402;28;19926;-69
2022/11/13 04:04:56;;;;;;;;;;;4.90;99.90;;;;;;4996176;28;19925;-69
2022/11/13 04:07:24;;;;;;;;;;;4.90;99.90;;;;;;5010188;28;19925;-69
2022/11/13 04:09:51;;;;;;;;;;;5.00;99.90;;;;;;4998267;28;20024;-69
2022/11/13 04:12:18;;;;;;;;;;;5.00;99.90;;;;;;5003118;28;19926;-69
2022/11/13 04:14:44;;;;;;;;;;;4.90;99.90;;;;;;4999472;28;20033;-69
2022/11/13 04:17:11;;;;;;;;;;;4.80;99.90;;;;;;4998266;28;19932;-69
2022/11/13 04:19:38;;;;;;;;;;;4.70;99.90;;;;;;4990530;28;20020;-70
2022/11/13 04:22:04;;;;;;;;;;;4.80;99.90;;;;;;4990592;28;19973;-69
2022/11/13 04:24:32;;;;;;;;;;;4.90;99.90;;;;;;4993480;28;19926;-69
2022/11/13 04:26:59;;;;;;;;;;;4.90;99.90;;;;;;5008262;28;20396;-70
2022/11/13 04:29:26;;;;;;;;;;;5.00;99.90;;;;;;5000274;28;20365;-70
2022/11/13 04:31:52;;;;;;;;;;;5.00;99.90;;;;;;4993059;28;19995;-70
2022/11/13 04:34:19;;;;;;;;;;;4.90;99.90;;;;;;4990080;28;19925;-70
2022/11/13 04:36:46;;;;;;;;;;;4.80;99.90;;;;;;4996246;28;19932;-70
2022/11/13 04:39:12;;;;;;;;;;;4.80;99.90;;;;;;4993413;28;19926;-69
2022/11/13 04:44:24;;;;;;;;;;;4.90;99.90;;;;;;4996103;28;19933;-69
2022/11/13 04:46:51;;;;;;;;;;;5.00;99.90;;;;;;4996391;28;20324;-70
2022/11/13 04:49:18;;;;;;;;;;;5.10;99.90;;;;;;4992825;28;19937;-69
2022/11/13 04:51:44;;;;;;;;;;;5.10;99.90;;;;;;4993021;28;19926;-70
2022/11/13 04:54:11;;;;;;;;;;;5.20;99.90;;;;;;4994077;28;19926;-69
2022/11/13 04:56:38;;;;;;;;;;;5.10;99.90;;;;;;4994989;28;20122;-69
2022/11/13 04:59:06;;;;;;;;;;;5.20;99.90;;;;;;4989220;28;19926;-69
2022/11/13 05:01:32;;;;;;;;;;;5.20;99.90;;;;;;4997872;28;19930;-70
2022/11/13 05:03:59;;;;;;;;;;;5.10;99.90;;;;;;5006403;28;19958;-70
2022/11/13 05:06:26;;;;;;;;;;;5.10;99.90;;;;;;5005470;28;19929;-70
2022/11/13 05:08:52;;;;;;;;;;;5.10;99.90;;;;;;5007102;28;19930;-70
2022/11/13 05:11:19;;;;;;;;;;;5.10;99.90;;;;;;5008397;28;20028;-70
2022/11/13 05:13:46;;;;;;;;;;;5.00;99.90;;;;;;5008513;28;19925;-69
2022/11/13 05:16:14;;;;;;;;;;;5.00;99.90;;;;;;5008196;28;19926;-69
2022/11/13 05:18:41;;;;;;;;;;;4.80;99.90;;;;;;5007571;28;19965;-69
2022/11/13 05:21:08;;;;;;;;;;;4.80;99.90;;;;;;5008356;28;19939;-69
2022/11/13 05:23:35;;;;;;;;;;;4.80;99.90;;;;;;5009004;28;19925;-70
2022/11/13 05:26:02;;;;;;;;;;;4.60;99.90;;;;;;5010388;28;19932;-70
2022/11/13 05:28:29;;;;;;;;;;;4.50;99.90;;;;;;5011252;28;20014;-69
2022/11/13 05:31:02;;;;;;;;;;;4.40;99.90;;;;;;5011513;28;19925;-70
2022/11/13 05:33:30;;;;;;;;;;;4.30;99.90;;;;;;5010281;28;20068;-70
2022/11/13 05:36:00;;;;;;;;;;;4.30;99.90;;;;;;4999431;28;20017;-69
2022/11/13 05:38:27;;;;;;;;;;;4.20;99.90;;;;;;5009116;28;19929;-70
2022/11/13 05:40:54;;;;;;;;;;;4.20;99.90;;;;;;5011014;28;19925;-69
2022/11/13 05:43:21;;;;;;;;;;;4.20;99.90;;;;;;5012019;28;19925;-70
2022/11/13 05:45:47;;;;;;;;;;;4.10;99.90;;;;;;5011308;28;19926;-69
2022/11/13 05:48:14;;;;;;;;;;;4.00;99.90;;;;;;5006956;28;20020;-69
2022/11/13 05:50:42;;;;;;;;;;;4.00;99.90;;;;;;5011388;28;19926;-70
2022/11/13 05:53:09;;;;;;;;;;;4.00;99.90;;;;;;5011800;28;19971;-69
2022/11/13 05:55:35;;;;;;;;;;;4.10;99.90;;;;;;5011601;28;19926;-69
2022/11/13 05:58:02;;;;;;;;;;;4.20;99.90;;;;;;5002691;28;20012;-69
2022/11/13 06:00:28;;;;;;;;;;;4.20;99.90;;;;;;5011121;28;20036;-70
2022/11/13 06:02:55;;;;;;;;;;;4.30;99.90;;;;;;5009831;28;20319;-70
2022/11/13 06:05:22;;;;;;;;;;;4.30;99.90;;;;;;4992389;28;20351;-70
2022/11/13 06:07:50;;;;;;;;;;;4.30;99.90;;;;;;5002229;28;19933;-70
2022/11/13 06:10:17;;;;;;;;;;;4.30;99.90;;;;;;5010178;28;19926;-70
2022/11/13 06:12:43;;;;;;;;;;;4.20;99.90;;;;;;5010524;28;20448;-70
2022/11/13 06:15:10;;;;;;;;;;;4.10;99.90;;;;;;5011196;28;19925;-70
2022/11/13 06:17:37;;;;;;;;;;;4.10;99.90;;;;;;5010372;28;19930;-70
2022/11/13 06:20:04;;;;;;;;;;;4.00;99.90;;;;;;4999079;28;19926;-70
2022/11/13 06:22:30;;;;;;;;;;;4.00;99.90;;;;;;5010970;28;20376;-70
2022/11/13 06:24:58;;;;;;;;;;;4.00;99.90;;;;;;5009977;28;19981;-71
2022/11/13 06:27:25;;;;;;;;;;;3.80;99.90;;;;;;5010122;28;19926;-69
2022/11/13 06:29:52;;;;;;;;;;;3.70;99.90;;;;;;5010199;28;20020;-70
2022/11/13 06:32:18;;;;;;;;;;;3.60;99.90;;;;;;5004629;28;20016;-70
2022/11/13 06:34:45;;;;;;;;;;;3.60;99.90;;;;;;5009000;28;19926;-70
2022/11/13 06:37:12;;;;;;;;;;;3.60;99.90;;;;;;5009322;28;19929;-69
2022/11/13 06:39:38;;;;;;;;;;;3.60;99.90;;;;;;5009122;28;19926;-70
2022/11/13 06:42:06;;;;;;;;;;;3.60;99.90;;;;;;5010299;28;20000;-69
2022/11/13 06:44:33;;;;;;;;;;;3.50;99.90;;;;;;5008677;28;19975;-70
2022/11/13 06:47:00;;;;;;;;;;;3.60;99.90;;;;;;5009061;28;19979;-70
2022/11/13 06:49:26;;;;;;;;;;;3.50;99.90;;;;;;5010501;28;20405;-71
2022/11/13 06:51:53;;;;;;;;;;;3.50;99.90;;;;;;5009437;28;20307;-71
2022/11/13 06:54:19;;;;;;;;;;;3.50;99.90;;;;;;5006853;28;19961;-71
2022/11/13 06:56:46;;;;;;;;;;;3.40;99.90;;;;;;5009927;28;20035;-71
2022/11/13 06:59:14;;;;;;;;;;;3.40;99.90;;;;;;5009424;28;20020;-71
2022/11/13 07:01:41;;;;;;;;;;;3.40;99.90;;;;;;5002381;28;20446;-70
2022/11/13 07:04:11;;;;;;;;;;;3.30;99.90;;;;;;5007969;28;20330;-70
2022/11/13 07:06:38;;;;;;;;;;;3.30;99.90;;;;;;5009049;28;19926;-70
2022/11/13 07:09:04;;;;;;;;;;;3.30;99.90;;;;;;5009436;28;19930;-71
2022/11/13 07:11:31;;;;;;;;;;;3.40;99.90;;;;;;5008966;28;19932;-70
2022/11/13 07:13:58;;;;;;;;;;;3.40;99.90;;;;;;5009548;28;19925;-71
2022/11/13 07:16:26;;;;;;;;;;;3.50;99.90;;;;;;5009562;28;19932;-71
2022/11/13 07:18:53;;;;;;;;;;;3.50;99.90;;;;;;5008657;28;20384;-70
2022/11/13 07:21:20;;;;;;;;;;;3.50;99.90;;;;;;5009250;28;19973;-70
2022/11/13 07:23:47;;;;;;;;;;;3.40;99.90;;;;;;5005799;28;19977;-71
2022/11/13 07:26:14;;;;;;;;;;;3.30;99.90;;;;;;5002668;28;20392;-69
2022/11/13 07:28:41;;;;;;;;;;;3.40;99.90;;;;;;5005379;28;20001;-70
2022/11/13 07:31:09;;;;;;;;;;;3.60;99.90;;;;;;5008429;28;20005;-70
2022/11/13 07:33:37;;;;;;;;;;;3.60;99.90;;;;;;5006864;28;19977;-70
2022/11/13 07:36:04;;;;;;;;;;;3.60;99.90;;;;;;5009232;28;19932;-71
2022/11/13 07:38:30;;;;;;;;;;;3.90;99.90;;;;;;5008826;28;20024;-70
2022/11/13 07:40:58;;;;;;;;;;;3.90;99.90;;;;;;5008728;28;20024;-70
2022/11/13 07:43:25;;;;;;;;;;;3.80;99.90;;;;;;5008514;28;19926;-70
2022/11/13 07:45:53;;;;;;;;;;;3.80;99.90;;;;;;5009411;28;19929;-71
2022/11/13 07:48:20;;;;;;;;;;;3.70;99.90;;;;;;5008143;28;19961;-71
2022/11/13 07:50:48;;;;;;;;;;;3.60;99.90;;;;;;5009260;28;19951;-71
2022/11/13 07:53:15;;;;;;;;;;;3.70;99.90;;;;;;5008600;28;19930;-71
2022/11/13 07:55:42;;;;;;;;;;;3.70;99.90;;;;;;5003408;28;19932;-72
2022/11/13 07:58:09;;;;;;;;;;;3.80;99.90;;;;;;5000700;28;20016;-71
2022/11/13 08:00:35;;;;;;;;;;;3.90;99.90;;;;;;4995903;28;20492;-71
2022/11/13 08:03:06;;;;;;;;;;;4.00;99.90;;;;;;5008582;28;19932;-71
2022/11/13 08:05:32;;;;;;;;;;;4.10;99.90;;;;;;5008600;28;19925;-71
2022/11/13 08:08:00;;;;;;;;;;;4.30;99.90;;;;;;5001995;28;19932;-71
2022/11/13 08:10:27;;;;;;;;;;;5.90;99.90;;;;;;5008039;28;20399;-72
2022/11/13 08:12:58;;;;;;;;;;;7.60;99.90;;;;;;5009084;28;19926;-71
2022/11/13 08:15:24;;;;;;;;;;;8.20;99.90;;;;;;5009622;28;19925;-71
2022/11/13 08:17:53;;;;;;;;;;;8.80;99.90;;;;;;5009663;28;20019;-71
2022/11/13 08:20:20;;;;;;;;;;;9.50;99.90;;;;;;5008632;28;20017;-71
2022/11/13 08:22:47;;;;;;;;;;;10.80;99.90;;;;;;5004429;28;19925;-71
2022/11/13 08:25:15;;;;;;;;;;;11.60;99.90;;;;;;4999240;28;19926;-72
2022/11/13 08:27:41;;;;;;;;;;;12.20;99.90;;;;;;5008764;28;20452;-71
2022/11/13 08:30:09;;;;;;;;;;;13.20;99.90;;;;;;5009750;28;19925;-71
2022/11/13 08:32:35;;;;;;;;;;;12.90;99.90;;;;;;5008527;28;19932;-71
2022/11/13 08:35:02;;;;;;;;;;;13.90;99.90;;;;;;5008359;28;20023;-69
2022/11/13 08:37:29;;;;;;;;;;;12.60;99.90;;;;;;5008967;28;19925;-71
2022/11/13 08:39:55;;;;;;;;;;;12.30;99.90;;;;;;5006244;28;20345;-71
2022/11/13 08:42:23;;;;;;;;;;;12.70;99.90;;;;;;5004829;28;19956;-71
2022/11/13 08:44:50;;;;;;;;;;;12.80;99.90;;;;;;5007966;28;19926;-71
2022/11/13 08:47:17;;;;;;;;;;;13.50;99.90;;;;;;5005941;28;20068;-71
2022/11/13 08:49:43;;;;;;;;;;;14.00;99.90;;;;;;5004583;28;19933;-70
2022/11/13 08:52:10;;;;;;;;;;;14.60;97.60;;;;;;5000778;28;19926;-71
2022/11/13 08:54:37;;;;;;;;;;;15.10;98.60;;;;;;5006538;28;19947;-72
2022/11/13 08:57:03;;;;;;;;;;;16.10;91.90;;;;;;5005079;28;19948;-71
2022/11/13 08:59:31;;;;;;;;;;;16.60;89.80;;;;;;5003293;28;20024;-71
2022/11/13 09:01:58;;;;;;;;;;;17.30;63.60;;;;;;5020616;28;19929;-71
2022/11/13 09:04:25;;;;;;;;;;;17.70;60.30;;;;;;5015276;28;19978;-72
2022/11/13 09:06:52;;;;;;;;;;;17.70;49.50;;;;;;5015243;28;19929;-72
2022/11/13 09:09:19;;;;;;;;;;;17.40;49.80;;;;;;5014886;28;19931;-72
2022/11/13 09:11:46;;;;;;;;;;;17.40;49.10;;;;;;5014298;28;20591;-72
2022/11/13 09:14:12;;;;;;;;;;;15.40;61.80;;;;;;5009131;28;19995;-71
2022/11/13 09:16:40;;;;;;;;;;;12.90;99.90;;;;;;5014979;28;19965;-72
2022/11/13 09:19:07;;;;;;;;;;;11.70;99.90;;;;;;5013618;28;20020;-71
2022/11/13 09:21:34;;;;;;;;;;;10.50;99.90;;;;;;5011523;28;19932;-68
2022/11/13 09:24:00;;;;;;;;;;;9.70;99.90;;;;;;5014391;28;19940;-73
2022/11/13 09:26:27;;;;;;;;;;;9.10;99.90;;;;;;5011280;28;20028;-72
2022/11/13 09:28:53;;;;;;;;;;;9.00;99.90;;;;;;5017329;28;20081;-72
2022/11/13 09:31:20;;;;;;;;;;;9.00;99.90;;;;;;5013312;28;20771;-73
2022/11/13 09:33:48;;;;;;;;;;;8.90;99.90;;;;;;5005233;28;19932;-72
2022/11/13 09:36:16;;;;;;;;;;;8.80;99.90;;;;;;5013787;28;19925;-73
2022/11/13 09:38:42;;;;;;;;;;;8.60;99.90;;;;;;5010441;28;20749;-72
2022/11/13 09:41:10;;;;;;;;;;;8.50;99.90;;;;;;5009840;28;19947;-72
2022/11/13 09:43:39;;;;;;;;;;;8.50;99.90;;;;;;4999145;28;19931;-72
2022/11/13 09:46:08;;;;;;;;;;;8.50;99.90;;;;;;5006285;28;19926;-73
2022/11/13 09:48:40;;;;;;;;;;;8.40;99.90;;;;;;5011911;28;19925;-73
2022/11/13 09:51:12;;;;;;;;;;;8.30;99.90;;;;;;5003234;28;20222;-73
2022/11/13 09:53:40;;;;;;;;;;;8.30;99.90;;;;;;5008476;28;20400;-71
2022/11/13 09:56:14;;;;;;;;;;;8.30;99.90;;;;;;5001043;28;20448;-71
2022/11/13 09:58:45;;;;;;;;;;;8.20;99.90;;;;;;5010092;28;19956;-71
2022/11/13 10:01:16;;;;;;;;;;;8.20;99.90;;;;;;5008942;28;20016;-72
2022/11/13 10:03:45;;;;;;;;;;;8.20;99.90;;;;;;5007191;28;20346;-72
2022/11/13 10:06:16;;;;;;;;;;;8.20;99.90;;;;;;5005208;28;20020;-72
2022/11/13 10:08:57;;;;;;;;;;;8.40;99.90;;;;;;5010052;28;20035;-71
2022/11/13 10:11:36;;;;;;;;;;;8.50;99.90;;;;;;5015048;28;20356;-72
2022/11/13 10:14:07;;;;;;;;;;;8.70;99.90;;;;;;5006605;28;19925;-72
2022/11/13 10:16:35;;;;;;;;;;;8.90;99.90;;;;;;5004257;28;19934;-72
2022/11/13 10:19:07;;;;;;;;;;;9.00;99.90;;;;;;5004905;28;20008;-71
2022/11/13 10:21:37;;;;;;;;;;;9.20;99.90;;;;;;5006099;28;19961;-71
2022/11/13 10:24:05;;;;;;;;;;;9.30;99.90;;;;;;5005546;28;19926;-73
2022/11/13 10:26:31;;;;;;;;;;;9.50;99.90;;;;;;5003278;28;19939;-72
2022/11/13 10:29:01;;;;;;;;;;;9.60;99.90;;;;;;5003619;28;19934;-73
2022/11/13 10:31:27;;;;;;;;;;;9.80;99.90;;;;;;5002424;28;19938;-72
2022/11/13 10:33:54;;;;;;;;;;;9.90;99.90;;;;;;5003487;28;21145;-73
2022/11/13 10:36:26;;;;;;;;;;;10.00;99.90;;;;;;5002490;28;19943;-72
2022/11/13 10:38:58;;;;;;;;;;;9.90;99.90;;;;;;4996970;28;19947;-73
2022/11/13 10:41:25;;;;;;;;;;;9.90;99.90;;;;;;5002158;28;20108;-73
2022/11/13 10:43:55;;;;;;;;;;;10.00;99.90;;;;;;5001085;28;20033;-73
2022/11/13 10:46:24;;;;;;;;;;;10.10;99.90;;;;;;5001377;28;19973;-72
2022/11/13 10:48:51;;;;;;;;;;;10.20;99.90;;;;;;5001707;28;19933;-72
2022/11/13 10:51:22;;;;;;;;;;;10.30;99.90;;;;;;5001205;28;20000;-72
2022/11/13 10:53:50;;;;;;;;;;;10.40;99.90;;;;;;5000116;28;19933;-73
2022/11/13 10:56:25;;;;;;;;;;;10.40;99.90;;;;;;5004894;28;19964;-71
2022/11/13 10:59:02;;;;;;;;;;;10.40;99.90;;;;;;4999788;28;20427;-72
2022/11/13 11:01:29;;;;;;;;;;;10.40;99.90;;;;;;4998621;28;20018;-72
2022/11/13 11:03:56;;;;;;;;;;;10.40;99.90;;;;;;5002285;28;19934;-71
2022/11/13 11:06:31;;;;;;;;;;;10.40;99.90;;;;;;5001256;28;19926;-71
2022/11/13 11:09:05;;;;;;;;;;;10.60;99.90;;;;;;5002645;28;20460;-72
2022/11/13 11:14:19;;;;;;;;;;;10.90;99.90;;;;;;5004053;28;19933;-72
2022/11/13 11:16:47;;;;;;;;;;;11.00;99.90;;;;;;5002396;28;19943;-73
2022/11/13 11:19:15;;;;;;;;;;;11.20;99.90;;;;;;5004231;28;20388;-72
2022/11/13 11:21:42;;;;;;;;;;;11.40;99.90;;;;;;5007236;28;19932;-72
2022/11/13 11:24:13;;;;;;;;;;;11.30;99.90;;;;;;5005040;28;19925;-72
2022/11/13 11:26:43;;;;;;;;;;;11.30;99.90;;;;;;5006381;28;19948;-74
2022/11/13 11:29:14;;;;;;;;;;;11.40;99.90;;;;;;5003275;28;19959;-73
2022/11/13 11:31:44;;;;;;;;;;;11.40;99.90;;;;;;5007301;28;19926;-72
2022/11/13 11:34:16;;;;;;;;;;;11.30;99.90;;;;;;5006182;28;19932;-72
2022/11/13 11:36:47;;;;;;;;;;;11.30;99.90;;;;;;5004247;28;19929;-73
2022/11/13 11:39:25;;;;;;;;;;;11.40;99.90;;;;;;4999470;28;20016;-73
2022/11/13 11:41:57;;;;;;;;;;;11.50;99.90;;;;;;4996784;28;20707;-73
2022/11/13 11:44:28;;;;;;;;;;;11.60;99.90;;;;;;5003901;28;19933;-73
2022/11/13 11:46:55;;;;;;;;;;;11.70;99.90;;;;;;5004625;28;19940;-73
2022/11/13 11:49:22;;;;;;;;;;;11.70;99.90;;;;;;5014047;28;20034;-73
2022/11/13 11:51:53;;;;;;;;;;;11.70;99.90;;;;;;5004529;28;19925;-73
2022/11/13 11:54:25;;;;;;;;;;;11.80;99.90;;;;;;5003830;28;20020;-72
2022/11/13 11:56:55;;;;;;;;;;;12.00;99.90;;;;;;4995999;28;20024;-73
2022/11/13 11:59:30;;;;;;;;;;;12.30;99.90;;;;;;5002122;28;19925;-73
2022/11/13 12:02:11;;;;;;;;;;;12.50;99.90;;;;;;5012878;28;20240;-74
2022/11/13 12:04:45;;;;;;;;;;;12.70;99.90;;;;;;5005603;28;19964;-73
2022/11/13 12:07:16;;;;;;;;;;;12.80;99.90;;;;;;5006286;28;20443;-74
2022/11/13 12:09:47;;;;;;;;;;;13.00;99.90;;;;;;5002561;28;19968;-74
2022/11/13 12:12:19;;;;;;;;;;;13.10;99.90;;;;;;5006712;28;19926;-73
2022/11/13 12:14:48;;;;;;;;;;;13.00;99.90;;;;;;5004417;28;20366;-74
2022/11/13 12:17:26;;;;;;;;;;;12.90;99.90;;;;;;5007644;28;19926;-72
2022/11/13 12:19:56;;;;;;;;;;;13.00;99.90;;;;;;5003273;28;20023;-73
2022/11/13 12:22:27;;;;;;;;;;;13.00;99.90;;;;;;5008149;28;20016;-73
2022/11/13 12:25:00;;;;;;;;;;;13.10;99.90;;;;;;5005118;28;19932;-74
2022/11/13 12:27:32;;;;;;;;;;;13.10;99.90;;;;;;5011672;28;19925;-73
2022/11/13 12:30:07;;;;;;;;;;;13.10;99.90;;;;;;5014909;28;19961;-73
2022/11/13 12:32:50;;;;;;;;;;;13.20;99.90;;;;;;5000940;28;19986;-74
2022/11/13 12:35:18;;;;;;;;;;;13.30;99.90;;;;;;4992232;28;19948;-74
2022/11/13 12:37:48;;;;;;;;;;;13.40;99.90;;;;;;5011790;28;19937;-74
2022/11/13 12:40:18;;;;;;;;;;;13.40;99.90;;;;;;5026279;28;20481;-73
2022/11/13 12:42:49;;;;;;;;;;;13.60;99.90;;;;;;4999649;28;20017;-73
2022/11/13 12:45:20;;;;;;;;;;;13.60;99.90;;;;;;5008856;28;19934;-74
2022/11/13 12:47:48;;;;;;;;;;;13.80;99.90;;;;;;4998517;28;19986;-73
2022/11/13 12:50:23;;;;;;;;;;;13.80;99.90;;;;;;5010333;28;20295;-73
2022/11/13 12:53:00;;;;;;;;;;;13.90;99.90;;;;;;4995267;28;20028;-73
2022/11/13 12:55:28;;;;;;;;;;;14.00;99.90;;;;;;5006114;28;19933;-74
2022/11/13 12:57:57;;;;;;;;;;;13.90;99.90;;;;;;5006759;28;20312;-73
2022/11/13 13:00:25;;;;;;;;;;;13.90;99.90;;;;;;4997080;28;20027;-73
2022/11/13 13:03:01;;;;;;;;;;;14.00;99.90;;;;;;4997541;28;19930;-74
2022/11/13 13:05:45;;;;;;;;;;;14.50;99.90;;;;;;5011279;28;19983;-72
2022/11/13 13:08:33;;;;;;;;;;;14.70;99.90;;;;;;5002518;28;20000;-72
2022/11/13 13:11:09;;;;;;;;;;;14.50;99.90;;;;;;5005167;28;19925;-73
2022/11/13 13:13:40;;;;;;;;;;;14.30;99.90;;;;;;5008403;28;19940;-73
2022/11/13 13:16:07;;;;;;;;;;;14.20;99.90;;;;;;5032611;28;19933;-73
2022/11/13 13:18:35;;;;;;;;;;;14.10;99.90;;;;;;5006454;28;19925;-74
2022/11/13 13:21:05;;;;;;;;;;;14.10;99.90;;;;;;5000253;28;19998;-71
2022/11/13 13:23:32;;;;;;;;;;;14.10;99.90;;;;;;5000199;28;20497;-74
2022/11/13 13:26:02;;;;;;;;;;;14.10;99.90;;;;;;5011102;28;19929;-74
2022/11/13 13:28:30;;;;;;;;;;;14.00;99.90;;;;;;5013269;28;19931;-73
2022/11/13 13:31:02;;;;;;;;;;;13.90;99.90;;;;;;5002501;28;19926;-75
2022/11/13 13:33:34;;;;;;;;;;;13.90;99.90;;;;;;4996907;28;20387;-75
2022/11/13 13:36:06;;;;;;;;;;;13.90;99.90;;;;;;4996428;28;19969;-73
2022/11/13 13:38:37;;;;;;;;;;;13.90;99.90;;;;;;4998774;28;19926;-74
2022/11/13 13:41:14;;;;;;;;;;;13.90;99.90;;;;;;4999479;28;19929;-73
2022/11/13 13:43:45;;;;;;;;;;;13.90;99.90;;;;;;5007981;28;20024;-74
2022/11/13 13:46:15;;;;;;;;;;;13.90;99.90;;;;;;5008621;28;20460;-75
2022/11/13 13:48:45;;;;;;;;;;;13.90;99.90;;;;;;5009776;28;20376;-74
2022/11/13 13:51:15;;;;;;;;;;;13.90;99.90;;;;;;5011887;28;20047;-74
2022/11/13 13:53:42;;;;;;;;;;;13.90;99.90;;;;;;5010816;28;20028;-74
2022/11/13 13:56:10;;;;;;;;;;;13.90;99.90;;;;;;5011296;28;19970;-74
2022/11/13 13:58:38;;;;;;;;;;;13.80;99.90;;;;;;5010835;28;19925;-75
2022/11/13 14:01:05;;;;;;;;;;;13.90;99.90;;;;;;5011892;28;20013;-74
2022/11/13 14:03:33;;;;;;;;;;;13.80;99.90;;;;;;5022992;28;19976;-74
2022/11/13 14:06:08;;;;;;;;;;;13.80;99.90;;;;;;5005454;28;19936;-74
2022/11/13 14:08:34;;;;;;;;;;;13.80;99.90;;;;;;5009601;28;19964;-77
2022/11/13 14:11:03;;;;;;;;;;;13.70;99.90;;;;;;5009950;28;20025;-73
2022/11/13 14:13:30;;;;;;;;;;;13.70;99.90;;;;;;5010286;28;19951;-76
2022/11/13 14:16:00;;;;;;;;;;;13.60;99.90;;;;;;5005385;28;20016;-75
2022/11/13 14:18:27;;;;;;;;;;;13.50;99.90;;;;;;4993669;28;19932;-74
2022/11/13 14:20:56;;;;;;;;;;;13.50;99.90;;;;;;5003649;28;19926;-75
2022/11/13 14:23:26;;;;;;;;;;;13.50;99.90;;;;;;5007921;28;19999;-75
2022/11/13 14:25:53;;;;;;;;;;;13.40;99.90;;;;;;5005510;28;19930;-74
2022/11/13 14:28:21;;;;;;;;;;;13.40;99.90;;;;;;5005560;28;20399;-74
2022/11/13 14:30:53;;;;;;;;;;;13.40;99.90;;;;;;5001724;28;20012;-75
2022/11/13 14:33:22;;;;;;;;;;;13.40;99.90;;;;;;5009131;28;19925;-75
2022/11/13 14:35:51;;;;;;;;;;;13.40;99.90;;;;;;4996647;28;19933;-75
2022/11/13 14:38:21;;;;;;;;;;;13.30;99.90;;;;;;5009233;28;20378;-74